createdAt,value
2019-06-27T00:00:46.994Z,47.30
2019-06-27T00:03:22.275Z,47.00
2019-06-27T00:05:57.878Z,47.10
2019-06-27T00:08:33.094Z,47.20
2019-06-27T00:11:08.266Z,47.10
2019-06-27T00:13:43.398Z,47.30
2019-06-27T00:16:18.682Z,46.90
2019-06-27T00:18:53.904Z,47.30
2019-06-27T00:21:29.130Z,47.40
2019-06-27T00:24:04.264Z,47.40
2019-06-27T00:26:55.877Z,47.50
2019-06-27T00:29:16.339Z,47.60
2019-06-27T00:31:51.635Z,47.80
2019-06-27T00:34:26.842Z,47.60
2019-06-27T00:37:02.319Z,47.90
2019-06-27T00:39:37.550Z,47.90
2019-06-27T00:42:12.900Z,48.20
2019-06-27T00:44:48.110Z,47.80
2019-06-27T00:47:23.354Z,47.90
2019-06-27T00:49:58.643Z,47.90
2019-06-27T00:52:33.990Z,48.00
2019-06-27T00:55:09.825Z,48.20
2019-06-27T00:57:45.058Z,48.10
2019-06-27T01:00:20.392Z,48.20
2019-06-27T01:02:55.672Z,48.10
2019-06-27T01:05:31.318Z,48.10
2019-06-27T01:08:06.769Z,48.10
2019-06-27T01:10:41.918Z,48.20
2019-06-27T01:13:17.155Z,48.20
2019-06-27T01:15:52.382Z,48.40
2019-06-27T01:18:27.543Z,48.40
2019-06-27T01:21:02.771Z,48.40
2019-06-27T01:23:37.943Z,48.40
2019-06-27T01:26:13.174Z,48.40
2019-06-27T01:28:48.527Z,48.50
2019-06-27T01:31:23.738Z,48.90
2019-06-27T01:33:59.042Z,48.90
2019-06-27T01:36:34.258Z,48.90
2019-06-27T01:39:09.850Z,48.70
2019-06-27T01:41:45.274Z,48.80
2019-06-27T01:44:38.027Z,48.90
2019-06-27T01:47:13.248Z,49.00
2019-06-27T01:49:48.488Z,49.10
2019-06-27T01:52:24.230Z,49.00
2019-06-27T01:54:59.492Z,48.90
2019-06-27T01:57:46.003Z,49.00
2019-06-27T02:00:11.766Z,49.00
2019-06-27T02:02:46.997Z,49.30
2019-06-27T02:05:22.686Z,49.30
2019-06-27T02:07:57.854Z,49.30
2019-06-27T02:10:33.578Z,49.30
2019-06-27T02:13:08.890Z,49.30
2019-06-27T02:15:44.336Z,49.20
2019-06-27T02:18:19.545Z,49.30
2019-06-27T02:20:54.787Z,49.50
2019-06-27T02:23:30.027Z,50.20
2019-06-27T02:26:05.268Z,49.50
2019-06-27T02:28:41.027Z,50.20
2019-06-27T02:31:16.311Z,49.70
2019-06-27T02:33:51.626Z,49.60
2019-06-27T02:36:26.885Z,49.70
2019-06-27T02:39:02.256Z,49.60
2019-06-27T02:41:37.494Z,49.90
2019-06-27T02:44:12.693Z,50.00
2019-06-27T02:46:47.956Z,49.80
2019-06-27T02:49:23.194Z,49.90
2019-06-27T02:51:58.755Z,49.80
2019-06-27T02:54:33.979Z,49.70
2019-06-27T02:57:09.319Z,49.90
2019-06-27T02:59:44.536Z,49.90
2019-06-27T03:02:19.799Z,49.90
2019-06-27T03:04:55.018Z,50.20
2019-06-27T03:07:30.257Z,50.10
2019-06-27T03:10:05.999Z,50.00
2019-06-27T03:12:41.251Z,50.00
2019-06-27T03:15:16.795Z,50.40
2019-06-27T03:17:52.079Z,50.30
2019-06-27T03:20:28.024Z,50.20
2019-06-27T03:23:03.246Z,50.40
2019-06-27T03:25:38.484Z,50.40
2019-06-27T03:28:13.706Z,50.30
2019-06-27T03:30:48.945Z,50.50
2019-06-27T03:33:24.211Z,50.60
2019-06-27T03:35:59.551Z,50.60
2019-06-27T03:38:35.059Z,50.50
2019-06-27T03:41:10.282Z,50.60
2019-06-27T03:43:45.521Z,50.80
2019-06-27T03:46:20.876Z,50.80
2019-06-27T03:48:56.112Z,50.80
2019-06-27T03:51:31.664Z,50.70
2019-06-27T03:54:06.917Z,51.00
2019-06-27T03:56:42.201Z,50.90
2019-06-27T03:59:17.566Z,51.00
2019-06-27T04:01:52.734Z,51.10
2019-06-27T04:04:27.969Z,51.00
2019-06-27T04:07:03.208Z,51.10
2019-06-27T04:09:38.460Z,51.00
2019-06-27T04:12:13.704Z,51.00
2019-06-27T04:14:49.259Z,51.00
2019-06-27T04:17:24.505Z,51.10
2019-06-27T04:19:59.791Z,51.60
2019-06-27T04:22:35.404Z,51.10
2019-06-27T04:25:11.017Z,51.10
2019-06-27T04:27:46.231Z,51.20
2019-06-27T04:30:21.866Z,51.20
2019-06-27T04:32:57.065Z,51.40
2019-06-27T04:35:32.561Z,51.30
2019-06-27T04:38:07.762Z,51.40
2019-06-27T04:40:42.936Z,51.20
2019-06-27T04:43:18.915Z,51.30
2019-06-27T04:45:54.167Z,51.40
2019-06-27T04:48:29.386Z,51.30
2019-06-27T04:51:04.639Z,51.90
2019-06-27T04:53:39.877Z,51.50
2019-06-27T04:56:15.404Z,51.70
2019-06-27T04:58:50.618Z,51.70
2019-06-27T05:01:25.881Z,51.70
2019-06-27T05:04:01.106Z,51.60
2019-06-27T05:06:36.457Z,51.80
2019-06-27T05:09:11.731Z,51.80
2019-06-27T05:11:47.040Z,51.80
2019-06-27T05:14:22.280Z,51.80
2019-06-27T05:16:57.518Z,51.90
2019-06-27T05:19:32.802Z,51.90
2019-06-27T05:22:08.318Z,52.00
2019-06-27T05:24:43.637Z,52.30
2019-06-27T05:27:19.166Z,52.90
2019-06-27T05:30:08.245Z,52.50
2019-06-27T05:32:31.583Z,52.60
2019-06-27T05:35:07.163Z,52.80
2019-06-27T05:37:42.395Z,52.80
2019-06-27T05:40:17.657Z,52.80
2019-06-27T05:42:53.083Z,52.60
2019-06-27T05:45:28.385Z,52.80
2019-06-27T05:48:04.089Z,52.80
2019-06-27T05:50:39.662Z,52.90
2019-06-27T05:53:14.935Z,52.90
2019-06-27T05:55:50.220Z,52.80
2019-06-27T05:58:25.706Z,53.00
2019-06-27T06:01:01.197Z,52.90
2019-06-27T06:03:36.432Z,52.90
2019-06-27T06:06:11.713Z,52.70
2019-06-27T06:08:46.946Z,52.40
2019-06-27T06:11:22.574Z,52.20
2019-06-27T06:13:58.137Z,51.30
2019-06-27T06:16:33.289Z,51.60
2019-06-27T06:19:08.835Z,51.60
2019-06-27T06:21:44.009Z,51.70
2019-06-27T06:24:19.360Z,51.90
2019-06-27T06:26:54.503Z,51.30
2019-06-27T06:29:29.665Z,51.60
2019-06-27T06:32:04.882Z,51.50
2019-06-27T06:34:40.253Z,51.20
2019-06-27T06:37:15.817Z,51.00
2019-06-27T06:39:51.344Z,50.60
2019-06-27T06:42:26.504Z,50.70
2019-06-27T06:45:02.546Z,50.40
2019-06-27T06:47:37.824Z,50.20
2019-06-27T06:50:13.603Z,50.00
2019-06-27T06:52:48.831Z,50.00
2019-06-27T06:55:23.996Z,50.00
2019-06-27T06:57:59.234Z,50.20
2019-06-27T07:00:34.568Z,49.50
2019-06-27T07:03:09.801Z,49.50
2019-06-27T07:05:45.200Z,49.30
2019-06-27T07:08:20.597Z,49.00
2019-06-27T07:10:56.154Z,49.00
2019-06-27T07:13:31.363Z,49.00
2019-06-27T07:16:06.543Z,48.70
2019-06-27T07:18:42.125Z,48.40
2019-06-27T07:21:17.281Z,48.50
2019-06-27T07:23:52.581Z,48.20
2019-06-27T07:26:27.827Z,48.10
2019-06-27T07:29:03.062Z,47.80
2019-06-27T07:31:38.303Z,47.90
2019-06-27T07:34:13.535Z,47.80
2019-06-27T07:36:49.081Z,46.40
2019-06-27T07:39:24.252Z,47.10
2019-06-27T07:41:59.893Z,47.40
2019-06-27T07:44:35.102Z,46.80
2019-06-27T07:47:10.659Z,46.50
2019-06-27T07:49:45.881Z,45.90
2019-06-27T07:52:21.148Z,44.90
2019-06-27T07:54:56.366Z,44.90
2019-06-27T07:57:31.639Z,45.30
2019-06-27T08:00:07.427Z,46.00
2019-06-27T08:02:42.665Z,46.00
2019-06-27T08:05:18.078Z,45.90
2019-06-27T08:07:53.334Z,45.40
2019-06-27T08:10:28.521Z,45.20
2019-06-27T08:13:04.113Z,45.70
2019-06-27T08:15:39.357Z,45.60
2019-06-27T08:18:14.601Z,45.60
2019-06-27T08:20:49.813Z,45.70
2019-06-27T08:23:40.601Z,45.20
2019-06-27T08:26:01.930Z,44.80
2019-06-27T08:28:37.181Z,45.20
2019-06-27T08:31:12.405Z,44.70
2019-06-27T08:33:47.661Z,44.60
2019-06-27T08:36:22.892Z,45.00
2019-06-27T08:38:58.082Z,45.10
2019-06-27T08:41:33.390Z,45.00
2019-06-27T08:44:08.652Z,44.30
2019-06-27T08:46:44.148Z,44.10
2019-06-27T08:49:19.327Z,43.50
2019-06-27T08:51:54.542Z,43.40
2019-06-27T08:54:30.607Z,43.40
2019-06-27T08:57:05.832Z,42.80
2019-06-27T08:59:41.205Z,43.10
2019-06-27T09:02:16.438Z,42.80
2019-06-27T09:04:51.676Z,42.60
2019-06-27T09:07:27.062Z,42.80
2019-06-27T09:10:02.697Z,42.30
2019-06-27T09:12:37.838Z,42.10
2019-06-27T09:15:13.597Z,42.00
2019-06-27T09:17:48.835Z,42.50
2019-06-27T09:20:26.811Z,41.70
2019-06-27T09:23:02.085Z,41.20
2019-06-27T09:25:37.281Z,41.60
2019-06-27T09:28:12.948Z,41.10
2019-06-27T09:30:48.128Z,40.60
2019-06-27T09:33:23.341Z,40.50
2019-06-27T09:35:58.632Z,40.10
2019-06-27T09:38:34.147Z,40.00
2019-06-27T09:41:09.748Z,39.70
2019-06-27T09:43:44.964Z,39.30
2019-06-27T09:46:20.507Z,38.80
2019-06-27T09:48:56.419Z,38.80
2019-06-27T09:51:31.648Z,38.70
2019-06-27T09:54:07.203Z,38.10
2019-06-27T09:56:42.498Z,37.30
2019-06-27T09:59:17.685Z,36.90
2019-06-27T10:01:53.093Z,36.40
2019-06-27T10:04:29.087Z,36.70
2019-06-27T10:07:04.494Z,36.30
2019-06-27T10:09:39.709Z,36.10
2019-06-27T10:12:15.032Z,35.90
2019-06-27T10:14:50.256Z,35.00
2019-06-27T10:17:25.624Z,35.80
2019-06-27T10:20:01.291Z,34.80
2019-06-27T10:22:36.555Z,35.20
2019-06-27T10:25:12.660Z,34.80
2019-06-27T10:27:47.909Z,35.50
2019-06-27T10:30:24.266Z,35.60
2019-06-27T10:33:00.402Z,35.60
2019-06-27T10:35:35.753Z,33.90
2019-06-27T10:38:11.659Z,34.90
2019-06-27T10:40:46.801Z,34.60
2019-06-27T10:43:22.032Z,35.50
2019-06-27T10:45:57.188Z,34.90
2019-06-27T10:48:32.918Z,35.30
2019-06-27T10:51:08.221Z,35.20
2019-06-27T10:53:43.469Z,34.80
2019-06-27T10:56:18.903Z,35.00
2019-06-27T10:58:54.409Z,34.90
2019-06-27T11:01:29.696Z,34.00
2019-06-27T11:04:05.808Z,33.80
2019-06-27T11:06:41.057Z,34.50
2019-06-27T11:09:16.338Z,34.90
2019-06-27T11:11:51.630Z,35.10
2019-06-27T11:14:26.893Z,34.00
2019-06-27T11:17:02.122Z,34.80
2019-06-27T11:19:51.428Z,34.10
2019-06-27T11:22:14.895Z,34.10
2019-06-27T11:24:50.129Z,35.10
2019-06-27T11:27:27.387Z,34.50
2019-06-27T11:30:02.486Z,35.10
2019-06-27T11:32:38.189Z,35.70
2019-06-27T11:35:13.668Z,35.00
2019-06-27T11:37:48.986Z,34.90
2019-06-27T11:40:25.369Z,35.00
2019-06-27T11:43:00.600Z,34.50
2019-06-27T11:45:36.314Z,33.80
2019-06-27T11:48:11.556Z,34.00
2019-06-27T11:50:46.795Z,34.70
2019-06-27T11:53:22.105Z,33.90
2019-06-27T11:55:57.311Z,34.70
2019-06-27T11:58:32.512Z,33.70
2019-06-27T12:01:08.155Z,33.70
2019-06-27T12:03:49.568Z,34.30
2019-06-27T12:06:20.677Z,34.70
2019-06-27T12:08:55.990Z,34.40
2019-06-27T12:11:31.571Z,34.60
2019-06-27T12:14:06.785Z,34.40
2019-06-27T12:16:42.220Z,34.00
2019-06-27T12:19:17.799Z,33.40
2019-06-27T12:21:53.197Z,33.70
2019-06-27T12:24:28.458Z,33.00
2019-06-27T12:27:03.745Z,32.60
2019-06-27T12:29:38.899Z,32.50
2019-06-27T12:32:14.470Z,32.50
2019-06-27T12:34:49.638Z,33.30
2019-06-27T12:37:25.373Z,33.20
2019-06-27T12:40:01.370Z,33.00
2019-06-27T12:42:36.874Z,33.50
2019-06-27T12:45:12.294Z,32.90
2019-06-27T12:47:47.818Z,33.70
2019-06-27T12:50:23.027Z,34.10
2019-06-27T12:52:58.226Z,33.80
2019-06-27T12:55:33.710Z,32.80
2019-06-27T12:58:08.873Z,32.90
2019-06-27T13:00:44.102Z,33.70
2019-06-27T13:03:19.953Z,32.80
2019-06-27T13:05:55.218Z,32.70
2019-06-27T13:08:30.390Z,32.80
2019-06-27T13:11:05.631Z,33.30
2019-06-27T13:13:40.874Z,33.90
2019-06-27T13:16:16.099Z,34.30
2019-06-27T13:18:51.649Z,33.00
2019-06-27T13:21:26.881Z,33.70
2019-06-27T13:24:02.065Z,34.00
2019-06-27T13:26:38.166Z,33.50
2019-06-27T13:29:13.384Z,34.20
2019-06-27T13:31:48.687Z,33.90
2019-06-27T13:34:39.350Z,33.90
2019-06-27T13:37:00.779Z,32.90
2019-06-27T13:39:36.195Z,34.10
2019-06-27T13:42:11.840Z,33.80
2019-06-27T13:44:48.109Z,33.60
2019-06-27T13:47:23.346Z,33.70
2019-06-27T13:49:58.554Z,32.50
2019-06-27T13:52:33.926Z,33.20
2019-06-27T13:55:09.315Z,32.50
2019-06-27T13:57:44.588Z,33.10
2019-06-27T14:00:25.801Z,33.10
2019-06-27T14:03:18.338Z,33.30
2019-06-27T14:05:53.533Z,33.00
2019-06-27T14:08:28.833Z,33.20
2019-06-27T14:11:04.174Z,33.10
2019-06-27T14:13:39.771Z,32.50
2019-06-27T14:16:15.286Z,32.60
2019-06-27T14:18:50.433Z,33.30
2019-06-27T14:21:25.703Z,31.80
2019-06-27T14:24:01.645Z,32.90
2019-06-27T14:26:37.670Z,32.70
2019-06-27T14:29:12.915Z,31.90
2019-06-27T14:31:48.148Z,31.80
2019-06-27T14:34:23.290Z,31.90
2019-06-27T14:36:58.525Z,31.70
2019-06-27T14:39:33.681Z,31.30
2019-06-27T14:42:09.204Z,31.90
2019-06-27T14:44:44.410Z,31.50
2019-06-27T14:47:19.858Z,31.50
2019-06-27T14:49:55.057Z,31.40
2019-06-27T14:52:30.569Z,31.50
2019-06-27T14:55:06.420Z,32.00
2019-06-27T14:57:41.811Z,31.60
2019-06-27T15:00:17.480Z,31.60
2019-06-27T15:02:52.710Z,31.00
2019-06-27T15:05:32.959Z,31.40
2019-06-27T15:08:04.816Z,31.50
2019-06-27T15:10:39.955Z,31.30
2019-06-27T15:13:15.210Z,31.20
2019-06-27T15:15:50.696Z,31.70
2019-06-27T15:18:25.950Z,32.00
2019-06-27T15:21:01.089Z,32.20
2019-06-27T15:23:36.264Z,31.00
2019-06-27T15:26:11.488Z,31.20
2019-06-27T15:28:46.742Z,31.40
2019-06-27T15:31:22.553Z,30.70
2019-06-27T15:33:57.821Z,30.00
2019-06-27T15:36:33.292Z,29.90
2019-06-27T15:39:11.761Z,30.20
2019-06-27T15:41:45.560Z,30.70
2019-06-27T15:44:20.913Z,29.80
2019-06-27T15:46:56.482Z,30.10
2019-06-27T15:49:31.709Z,30.20
2019-06-27T15:52:06.859Z,30.20
2019-06-27T15:54:42.154Z,30.00
2019-06-27T15:57:17.292Z,29.80
2019-06-27T15:59:52.460Z,29.80
2019-06-27T16:02:27.680Z,29.30
2019-06-27T16:05:03.359Z,29.10
2019-06-27T16:07:38.596Z,28.90
2019-06-27T16:10:13.941Z,29.30
2019-06-27T16:12:49.177Z,29.10
2019-06-27T16:15:24.443Z,28.70
2019-06-27T16:17:59.657Z,28.70
2019-06-27T16:20:34.894Z,29.10
2019-06-27T16:23:10.113Z,29.50
2019-06-27T16:25:45.372Z,29.60
2019-06-27T16:28:20.849Z,29.80
2019-06-27T16:30:56.141Z,29.20
2019-06-27T16:33:31.393Z,29.60
2019-06-27T16:36:06.552Z,29.00
2019-06-27T16:38:41.708Z,28.90
2019-06-27T16:41:17.203Z,29.60
2019-06-27T16:43:52.763Z,29.70
2019-06-27T16:46:27.979Z,30.00
2019-06-27T16:49:03.190Z,29.80
2019-06-27T16:51:39.055Z,30.80
2019-06-27T16:54:14.260Z,30.70
2019-06-27T16:56:49.516Z,31.20
2019-06-27T16:59:24.732Z,30.50
2019-06-27T17:01:59.972Z,31.10
2019-06-27T17:04:35.196Z,30.60
2019-06-27T17:07:10.376Z,31.00
2019-06-27T17:09:45.664Z,31.10
2019-06-27T17:12:20.998Z,31.40
2019-06-27T17:14:56.847Z,31.70
2019-06-27T17:17:32.108Z,31.60
2019-06-27T17:20:08.106Z,31.60
2019-06-27T17:22:43.376Z,31.60
2019-06-27T17:25:18.615Z,31.70
2019-06-27T17:27:53.853Z,31.50
2019-06-27T17:30:29.088Z,32.00
2019-06-27T17:33:04.302Z,32.00
2019-06-27T17:35:39.574Z,32.70
2019-06-27T17:38:14.802Z,32.10
2019-06-27T17:40:50.051Z,32.10
2019-06-27T17:43:25.292Z,32.40
2019-06-27T17:46:00.501Z,32.60
2019-06-27T17:48:35.859Z,32.30
2019-06-27T17:51:11.070Z,32.30
2019-06-27T17:53:46.295Z,32.10
2019-06-27T17:56:22.144Z,32.20
2019-06-27T17:58:57.349Z,32.20
2019-06-27T18:01:32.868Z,33.00
2019-06-27T18:04:08.405Z,33.20
2019-06-27T18:06:43.973Z,33.00
2019-06-27T18:09:19.132Z,33.70
2019-06-27T18:11:54.338Z,33.90
2019-06-27T18:14:29.500Z,33.00
2019-06-27T18:17:04.713Z,32.80
2019-06-27T18:19:39.874Z,33.60
2019-06-27T18:22:15.034Z,33.40
2019-06-27T18:24:50.375Z,33.00
2019-06-27T18:27:25.969Z,32.90
2019-06-27T18:30:01.150Z,32.90
2019-06-27T18:32:36.600Z,32.70
2019-06-27T18:35:12.309Z,33.10
2019-06-27T18:37:47.529Z,33.50
2019-06-27T18:40:23.233Z,33.80
2019-06-27T18:42:58.381Z,33.70
2019-06-27T18:45:33.617Z,34.10
2019-06-27T18:48:08.805Z,34.00
2019-06-27T18:50:44.682Z,33.70
2019-06-27T18:53:19.954Z,33.60
2019-06-27T18:55:55.237Z,32.50
2019-06-27T18:58:30.939Z,33.10
2019-06-27T19:01:06.115Z,33.60
2019-06-27T19:03:41.345Z,32.60
2019-06-27T19:06:16.582Z,33.20
2019-06-27T19:08:51.837Z,33.10
2019-06-27T19:11:27.124Z,33.70
2019-06-27T19:14:02.284Z,33.80
2019-06-27T19:16:37.547Z,34.00
2019-06-27T19:19:15.401Z,34.20
2019-06-27T19:21:58.184Z,32.90
2019-06-27T19:24:50.417Z,34.20
2019-06-27T19:27:26.025Z,34.00
2019-06-27T19:30:02.259Z,33.60
2019-06-27T19:32:37.497Z,33.60
2019-06-27T19:35:13.059Z,32.50
2019-06-27T19:38:01.333Z,32.10
2019-06-27T19:40:25.271Z,32.10
2019-06-27T19:43:00.629Z,31.80
2019-06-27T19:45:35.845Z,32.50
2019-06-27T19:48:11.432Z,32.60
2019-06-27T19:50:46.638Z,32.30
2019-06-27T19:53:21.814Z,32.00
2019-06-27T19:55:57.044Z,32.30
2019-06-27T19:58:32.232Z,32.30
2019-06-27T20:01:07.484Z,32.50
2019-06-27T20:03:42.853Z,32.70
2019-06-27T20:06:18.487Z,32.70
2019-06-27T20:08:53.733Z,32.20
2019-06-27T20:11:28.877Z,32.10
2019-06-27T20:14:04.213Z,32.50
2019-06-27T20:16:39.427Z,32.20
2019-06-27T20:19:14.975Z,32.50
2019-06-27T20:21:50.259Z,32.80
2019-06-27T20:24:25.481Z,33.10
2019-06-27T20:27:00.773Z,32.80
2019-06-27T20:29:36.330Z,33.10
2019-06-27T20:32:11.458Z,33.50
2019-06-27T20:34:46.713Z,33.00
2019-06-27T20:37:22.711Z,33.20
2019-06-27T20:39:58.018Z,33.80
2019-06-27T20:42:33.174Z,34.00
2019-06-27T20:45:08.811Z,34.10
2019-06-27T20:47:43.955Z,33.90
2019-06-27T20:50:19.405Z,34.00
2019-06-27T20:52:54.662Z,33.80
2019-06-27T20:55:29.824Z,33.40
2019-06-27T20:58:05.043Z,34.00
2019-06-27T21:00:40.345Z,33.80
2019-06-27T21:03:15.595Z,34.20
2019-06-27T21:05:50.836Z,34.40
2019-06-27T21:08:26.493Z,34.60
2019-06-27T21:11:01.654Z,34.80
2019-06-27T21:13:36.799Z,34.60
2019-06-27T21:16:12.045Z,34.70
2019-06-27T21:18:47.293Z,34.60
2019-06-27T21:21:22.872Z,34.60
2019-06-27T21:23:58.125Z,34.80
2019-06-27T21:26:33.355Z,35.00
2019-06-27T21:29:08.977Z,35.10
2019-06-27T21:31:44.412Z,35.30
2019-06-27T21:34:19.625Z,35.10
2019-06-27T21:36:54.869Z,35.30
2019-06-27T21:39:30.132Z,35.20
2019-06-27T21:42:05.377Z,35.10
2019-06-27T21:44:40.516Z,35.20
2019-06-27T21:47:15.928Z,35.20
2019-06-27T21:49:51.386Z,35.10
2019-06-27T21:52:26.631Z,34.90
2019-06-27T21:55:01.889Z,34.90
2019-06-27T21:57:37.144Z,35.00
2019-06-27T22:00:12.394Z,35.10
2019-06-27T22:02:47.721Z,35.30
2019-06-27T22:05:23.127Z,36.20
2019-06-27T22:07:59.669Z,35.60
2019-06-27T22:10:34.829Z,35.70
2019-06-27T22:13:10.054Z,35.90
2019-06-27T22:15:45.285Z,35.80
2019-06-27T22:18:20.873Z,35.80
2019-06-27T22:20:56.433Z,35.90
2019-06-27T22:23:31.656Z,35.80
2019-06-27T22:26:07.321Z,35.90
2019-06-27T22:28:42.626Z,35.40
2019-06-27T22:31:17.832Z,35.70
2019-06-27T22:33:53.023Z,35.70
2019-06-27T22:36:29.021Z,35.90
2019-06-27T22:39:22.255Z,36.20
2019-06-27T22:42:15.048Z,36.20
2019-06-27T22:45:08.029Z,36.30
2019-06-27T22:48:01.577Z,35.60
2019-06-27T22:51:01.892Z,36.40
2019-06-27T22:53:41.994Z,35.50
2019-06-27T22:56:17.230Z,36.30
2019-06-27T22:58:52.401Z,35.70
2019-06-27T23:01:27.556Z,36.20
2019-06-27T23:04:02.769Z,36.20
2019-06-27T23:06:38.033Z,36.30
2019-06-27T23:09:13.499Z,36.50
2019-06-27T23:11:48.652Z,37.30
2019-06-27T23:14:23.849Z,36.90
2019-06-27T23:17:01.727Z,37.10
2019-06-27T23:19:36.919Z,37.20
2019-06-27T23:22:12.208Z,37.40
2019-06-27T23:24:47.383Z,37.50
2019-06-27T23:27:23.001Z,37.50
2019-06-27T23:29:58.209Z,37.60
2019-06-27T23:32:33.454Z,37.60
2019-06-27T23:35:08.757Z,37.70
2019-06-27T23:37:43.936Z,37.90
2019-06-27T23:40:19.498Z,37.90
2019-06-27T23:42:54.869Z,38.40
2019-06-27T23:45:30.080Z,38.00
2019-06-27T23:48:05.318Z,37.90
2019-06-27T23:50:40.464Z,38.10
2019-06-27T23:53:15.661Z,37.90
2019-06-27T23:55:51.110Z,37.80
2019-06-27T23:58:26.349Z,37.90
